createdAt,value
2023-01-25T00:01:00.823Z,2.70
2023-01-25T00:03:27.307Z,2.65
2023-01-25T00:05:53.712Z,2.68
2023-01-25T00:08:20.090Z,2.71
2023-01-25T00:10:46.474Z,2.73
2023-01-25T00:13:12.869Z,2.70
2023-01-25T00:15:39.236Z,2.74
2023-01-25T00:18:05.675Z,2.79
2023-01-25T00:20:32.029Z,2.79
2023-01-25T00:22:58.392Z,2.85
2023-01-25T00:25:24.760Z,2.80
2023-01-25T00:27:51.130Z,2.86
2023-01-25T00:30:17.509Z,2.76
2023-01-25T00:32:43.989Z,2.69
2023-01-25T00:35:10.636Z,2.72
2023-01-25T00:37:37.142Z,2.84
2023-01-25T00:40:03.571Z,2.81
2023-01-25T00:42:29.951Z,2.84
2023-01-25T00:44:56.316Z,2.71
2023-01-25T00:47:22.694Z,2.68
2023-01-25T00:49:49.106Z,2.64
2023-01-25T00:52:15.544Z,2.68
2023-01-25T00:54:41.917Z,2.77
2023-01-25T00:57:08.293Z,2.65
2023-01-25T00:59:34.686Z,2.72
2023-01-25T01:02:01.231Z,2.72
2023-01-25T01:04:27.678Z,2.65
2023-01-25T01:06:54.055Z,2.64
2023-01-25T01:09:20.445Z,2.67
2023-01-25T01:11:46.816Z,2.64
2023-01-25T01:14:13.212Z,2.54
2023-01-25T01:16:39.642Z,2.43
2023-01-25T01:19:06.054Z,2.21
2023-01-25T01:21:32.434Z,2.41
2023-01-25T01:23:58.900Z,2.55
2023-01-25T01:26:25.321Z,2.64
2023-01-25T01:28:51.714Z,2.61
2023-01-25T01:31:18.197Z,2.71
2023-01-25T01:33:44.638Z,2.73
2023-01-25T01:36:11.011Z,2.77
2023-01-25T01:38:37.462Z,2.74
2023-01-25T01:41:03.839Z,2.73
2023-01-25T01:43:30.203Z,2.74
2023-01-25T01:45:56.615Z,2.69
2023-01-25T01:48:22.982Z,2.79
2023-01-25T01:50:49.368Z,2.76
2023-01-25T01:53:15.785Z,2.78
2023-01-25T01:55:42.162Z,2.76
2023-01-25T01:58:08.559Z,2.76
2023-01-25T02:00:34.944Z,2.80
2023-01-25T02:03:01.315Z,2.81
2023-01-25T02:05:27.684Z,2.82
2023-01-25T02:07:54.071Z,2.79
2023-01-25T02:10:20.533Z,2.77
2023-01-25T02:12:46.919Z,2.80
2023-01-25T02:15:13.326Z,2.82
2023-01-25T02:17:39.699Z,2.87
2023-01-25T02:20:06.088Z,2.88
2023-01-25T02:22:32.465Z,2.87
2023-01-25T02:24:58.848Z,2.88
2023-01-25T02:27:25.236Z,2.87
2023-01-25T02:29:51.679Z,2.76
2023-01-25T02:32:18.149Z,2.58
2023-01-25T02:34:44.652Z,2.57
2023-01-25T02:37:11.046Z,2.63
2023-01-25T02:39:37.442Z,2.67
2023-01-25T02:42:03.809Z,2.62
2023-01-25T02:44:30.701Z,2.57
2023-01-25T02:46:58.045Z,2.60
2023-01-25T02:49:24.428Z,2.63
2023-01-25T02:51:50.796Z,2.57
2023-01-25T02:54:17.157Z,2.44
2023-01-25T02:56:43.555Z,2.40
2023-01-25T02:59:09.922Z,2.38
2023-01-25T03:01:36.344Z,2.37
2023-01-25T03:04:02.754Z,2.38
2023-01-25T03:06:29.140Z,2.32
2023-01-25T03:08:55.503Z,2.33
2023-01-25T03:11:21.951Z,2.33
2023-01-25T03:13:48.315Z,2.29
2023-01-25T03:16:14.818Z,2.32
2023-01-25T03:18:41.225Z,2.29
2023-01-25T03:21:07.592Z,2.32
2023-01-25T03:23:33.994Z,2.36
2023-01-25T03:26:00.373Z,2.38
2023-01-25T03:28:26.750Z,2.52
2023-01-25T03:30:53.140Z,2.56
2023-01-25T03:33:19.519Z,2.62
2023-01-25T03:35:45.946Z,2.77
2023-01-25T03:38:12.323Z,2.66
2023-01-25T03:40:38.694Z,2.66
2023-01-25T03:43:05.087Z,2.72
2023-01-25T03:45:31.461Z,2.71
2023-01-25T03:47:57.911Z,2.69
2023-01-25T03:50:24.298Z,2.45
2023-01-25T03:52:50.682Z,2.38
2023-01-25T03:55:17.120Z,2.27
2023-01-25T03:57:43.500Z,2.22
2023-01-25T04:00:09.882Z,2.27
2023-01-25T04:02:36.375Z,2.43
2023-01-25T04:05:02.797Z,2.27
2023-01-25T04:07:29.187Z,2.21
2023-01-25T04:09:55.599Z,2.20
2023-01-25T04:12:22.150Z,2.05
2023-01-25T04:14:48.556Z,2.11
2023-01-25T04:17:14.948Z,2.13
2023-01-25T04:19:41.324Z,2.05
2023-01-25T04:22:07.677Z,2.06
2023-01-25T04:24:34.092Z,2.09
2023-01-25T04:27:00.472Z,2.10
2023-01-25T04:29:40.061Z,2.03
2023-01-25T04:32:07.336Z,2.03
2023-01-25T04:34:33.779Z,2.00
2023-01-25T04:37:00.161Z,1.95
2023-01-25T04:39:26.557Z,1.96
2023-01-25T04:41:52.974Z,1.91
2023-01-25T04:44:19.359Z,1.91
2023-01-25T04:46:45.739Z,1.85
2023-01-25T04:49:12.135Z,1.86
2023-01-25T04:51:38.494Z,1.91
2023-01-25T04:54:04.886Z,1.80
2023-01-25T04:56:31.307Z,1.76
2023-01-25T04:58:57.687Z,1.77
2023-01-25T05:01:24.125Z,1.81
2023-01-25T05:03:50.513Z,1.76
2023-01-25T05:06:16.898Z,1.86
2023-01-25T05:08:43.273Z,1.88
2023-01-25T05:11:09.687Z,1.88
2023-01-25T05:13:36.084Z,1.88
2023-01-25T05:16:02.543Z,1.85
2023-01-25T05:18:35.772Z,1.83
2023-01-25T05:21:09.109Z,1.77
2023-01-25T05:23:35.578Z,1.77
2023-01-25T05:26:01.968Z,1.74
2023-01-25T05:28:28.355Z,1.79
2023-01-25T05:30:54.764Z,1.76
2023-01-25T05:33:21.150Z,1.93
2023-01-25T05:35:47.572Z,1.78
2023-01-25T05:38:13.975Z,1.68
2023-01-25T05:40:40.364Z,1.59
2023-01-25T05:43:06.753Z,1.67
2023-01-25T05:45:33.126Z,1.68
2023-01-25T05:47:59.523Z,1.65
2023-01-25T05:50:26.151Z,1.35
2023-01-25T05:52:52.536Z,1.49
2023-01-25T05:55:19.007Z,1.53
2023-01-25T05:57:45.384Z,1.49
2023-01-25T06:00:11.755Z,1.51
2023-01-25T06:02:38.382Z,1.59
2023-01-25T06:05:04.840Z,1.67
2023-01-25T06:07:31.215Z,1.74
2023-01-25T06:09:57.607Z,1.78
2023-01-25T06:12:23.988Z,1.72
2023-01-25T06:14:51.520Z,1.74
2023-01-25T06:17:17.883Z,1.48
2023-01-25T06:19:44.261Z,1.39
2023-01-25T06:22:10.632Z,1.28
2023-01-25T06:24:37.016Z,1.20
2023-01-25T06:27:03.416Z,1.29
2023-01-25T06:29:29.882Z,1.45
2023-01-25T06:31:56.258Z,1.58
2023-01-25T06:34:22.644Z,1.68
2023-01-25T06:36:49.048Z,1.54
2023-01-25T06:39:15.458Z,1.50
2023-01-25T06:41:43.134Z,1.50
2023-01-25T06:44:09.521Z,1.63
2023-01-25T06:46:35.945Z,1.64
2023-01-25T06:49:02.424Z,1.74
2023-01-25T06:51:28.855Z,1.79
2023-01-25T06:53:55.230Z,1.83
2023-01-25T06:56:21.813Z,1.82
2023-01-25T06:58:48.282Z,1.77
2023-01-25T07:01:14.848Z,1.78
2023-01-25T07:03:41.329Z,1.81
2023-01-25T07:06:07.699Z,1.50
2023-01-25T07:08:34.065Z,1.52
2023-01-25T07:11:00.534Z,1.46
2023-01-25T07:13:26.924Z,1.46
2023-01-25T07:15:53.294Z,1.58
2023-01-25T07:18:19.708Z,1.67
2023-01-25T07:20:46.097Z,1.67
2023-01-25T07:23:12.518Z,1.65
2023-01-25T07:25:38.876Z,1.57
2023-01-25T07:28:05.271Z,1.63
2023-01-25T07:30:31.670Z,1.80
2023-01-25T07:32:58.093Z,1.74
2023-01-25T07:35:24.703Z,1.99
2023-01-25T07:37:51.086Z,2.11
2023-01-25T07:40:17.469Z,2.05
2023-01-25T07:42:43.842Z,2.13
2023-01-25T07:45:10.561Z,2.05
2023-01-25T07:47:37.951Z,2.01
2023-01-25T07:50:04.375Z,2.07
2023-01-25T07:52:30.771Z,2.18
2023-01-25T07:54:57.137Z,1.91
2023-01-25T07:57:23.525Z,1.99
2023-01-25T07:59:49.898Z,2.01
2023-01-25T08:02:16.314Z,1.89
2023-01-25T08:04:42.678Z,1.94
2023-01-25T08:07:09.157Z,1.96
2023-01-25T08:09:35.561Z,1.97
2023-01-25T08:12:01.946Z,1.88
2023-01-25T08:14:28.325Z,1.92
2023-01-25T08:16:54.700Z,2.00
2023-01-25T08:19:21.114Z,1.84
2023-01-25T08:21:47.617Z,2.12
2023-01-25T08:24:15.887Z,2.28
2023-01-25T08:26:42.967Z,2.37
2023-01-25T08:29:09.349Z,2.40
2023-01-25T08:31:35.801Z,2.46
2023-01-25T08:34:02.300Z,2.62
2023-01-25T08:36:28.747Z,2.44
2023-01-25T08:38:55.150Z,2.51
2023-01-25T08:41:22.759Z,2.50
2023-01-25T08:43:49.154Z,2.62
2023-01-25T08:46:15.559Z,2.73
2023-01-25T08:48:42.009Z,2.80
2023-01-25T08:51:08.396Z,2.98
2023-01-25T08:53:34.781Z,2.99
2023-01-25T08:56:01.170Z,3.00
2023-01-25T08:58:27.568Z,3.22
2023-01-25T09:00:53.944Z,3.47
2023-01-25T09:03:20.360Z,3.50
2023-01-25T09:05:46.760Z,3.78
2023-01-25T09:08:13.139Z,4.09
2023-01-25T09:10:39.601Z,4.43
2023-01-25T09:13:08.422Z,4.37
2023-01-25T09:15:35.136Z,4.13
2023-01-25T09:18:01.545Z,4.28
2023-01-25T09:20:28.337Z,4.31
2023-01-25T09:22:55.127Z,4.31
2023-01-25T09:25:21.529Z,4.45
2023-01-25T09:27:47.938Z,4.40
2023-01-25T09:30:18.726Z,4.43
2023-01-25T09:32:45.725Z,4.57
2023-01-25T09:35:12.144Z,4.59
2023-01-25T09:37:38.573Z,4.53
2023-01-25T09:40:05.054Z,4.22
2023-01-25T09:42:31.449Z,4.62
2023-01-25T09:44:57.832Z,4.84
2023-01-25T09:47:24.191Z,5.06
2023-01-25T09:49:50.576Z,5.56
2023-01-25T09:52:17.026Z,6.04
2023-01-25T09:54:47.090Z,6.23
2023-01-25T09:57:13.773Z,6.36
2023-01-25T09:59:40.147Z,6.16
2023-01-25T10:02:06.590Z,5.59
2023-01-25T10:04:32.988Z,5.78
2023-01-25T10:07:01.385Z,5.34
2023-01-25T10:09:28.111Z,5.31
2023-01-25T10:11:54.575Z,5.21
2023-01-25T10:14:20.968Z,5.16
2023-01-25T10:16:47.377Z,5.30
2023-01-25T10:19:13.778Z,5.50
2023-01-25T10:21:40.190Z,5.36
2023-01-25T10:24:06.653Z,5.47
2023-01-25T10:26:33.028Z,5.54
2023-01-25T10:28:59.422Z,5.46
2023-01-25T10:31:25.888Z,5.41
2023-01-25T10:33:52.314Z,5.27
2023-01-25T10:36:18.724Z,5.04
2023-01-25T10:38:45.105Z,5.12
2023-01-25T10:41:11.486Z,4.89
2023-01-25T10:43:37.863Z,4.65
2023-01-25T10:46:04.248Z,4.62
2023-01-25T10:48:30.663Z,4.53
2023-01-25T10:50:57.060Z,4.38
2023-01-25T10:53:23.456Z,4.54
2023-01-25T10:55:49.833Z,4.41
2023-01-25T10:58:16.221Z,4.19
2023-01-25T11:00:42.612Z,4.06
2023-01-25T11:03:09.026Z,3.99
2023-01-25T11:05:35.421Z,3.84
2023-01-25T11:08:01.797Z,3.79
2023-01-25T11:10:28.184Z,3.82
2023-01-25T11:12:54.544Z,3.82
2023-01-25T11:15:21.045Z,3.96
2023-01-25T11:17:48.669Z,4.01
2023-01-25T11:20:16.568Z,3.92
2023-01-25T11:22:42.944Z,3.83
2023-01-25T11:25:09.329Z,3.96
2023-01-25T11:27:35.741Z,4.18
2023-01-25T11:30:02.104Z,4.18
2023-01-25T11:32:28.543Z,4.23
2023-01-25T11:34:54.935Z,4.32
2023-01-25T11:37:21.320Z,4.45
2023-01-25T11:39:47.728Z,4.33
2023-01-25T11:42:14.118Z,4.43
2023-01-25T11:44:40.512Z,4.42
2023-01-25T11:47:06.877Z,4.53
2023-01-25T11:49:33.303Z,4.52
2023-01-25T11:52:01.578Z,4.63
2023-01-25T11:54:27.957Z,4.65
2023-01-25T11:56:54.336Z,4.47
2023-01-25T11:59:20.697Z,4.43
2023-01-25T12:01:47.142Z,4.47
2023-01-25T12:04:13.520Z,4.48
2023-01-25T12:06:40.007Z,4.37
2023-01-25T12:09:06.396Z,4.19
2023-01-25T12:11:32.769Z,4.14
2023-01-25T12:13:59.163Z,4.24
2023-01-25T12:16:25.583Z,4.27
2023-01-25T12:18:51.999Z,4.42
2023-01-25T12:21:30.581Z,4.44
2023-01-25T12:23:57.501Z,4.37
2023-01-25T12:26:23.905Z,4.40
2023-01-25T12:28:50.340Z,4.43
2023-01-25T12:31:16.858Z,4.38
2023-01-25T12:33:43.439Z,4.41
2023-01-25T12:36:09.798Z,4.44
2023-01-25T12:38:36.251Z,4.26
2023-01-25T12:41:02.634Z,4.37
2023-01-25T12:43:29.006Z,4.19
2023-01-25T12:45:55.448Z,4.27
2023-01-25T12:48:21.844Z,4.34
2023-01-25T12:50:48.311Z,4.39
2023-01-25T12:53:14.694Z,4.27
2023-01-25T12:55:41.082Z,4.23
2023-01-25T12:58:07.504Z,4.25
2023-01-25T13:00:33.909Z,4.41
2023-01-25T13:03:00.430Z,4.19
2023-01-25T13:05:26.802Z,4.24
2023-01-25T13:07:53.289Z,4.23
2023-01-25T13:10:22.000Z,4.07
2023-01-25T13:12:48.411Z,4.16
2023-01-25T13:15:14.784Z,4.24
2023-01-25T13:17:42.332Z,4.15
2023-01-25T13:20:08.962Z,4.27
2023-01-25T13:22:35.623Z,4.14
2023-01-25T13:25:02.065Z,3.98
2023-01-25T13:27:28.489Z,3.78
2023-01-25T13:29:54.868Z,3.79
2023-01-25T13:32:21.298Z,3.67
2023-01-25T13:34:47.720Z,3.57
2023-01-25T13:37:14.094Z,3.65
2023-01-25T13:39:40.488Z,3.71
2023-01-25T13:42:06.878Z,3.81
2023-01-25T13:44:33.300Z,3.90
2023-01-25T13:46:59.768Z,3.76
2023-01-25T13:49:26.149Z,3.76
2023-01-25T13:51:52.560Z,3.69
2023-01-25T13:54:18.962Z,3.68
2023-01-25T13:56:45.359Z,3.65
2023-01-25T13:59:11.765Z,3.64
2023-01-25T14:01:38.147Z,3.73
2023-01-25T14:04:04.652Z,3.57
2023-01-25T14:06:31.037Z,3.66
2023-01-25T14:08:57.464Z,3.69
2023-01-25T14:11:23.862Z,3.72
2023-01-25T14:13:50.245Z,3.69
2023-01-25T14:16:16.634Z,3.54
2023-01-25T14:18:43.008Z,3.57
2023-01-25T14:21:09.399Z,3.49
2023-01-25T14:23:35.789Z,3.69
2023-01-25T14:26:02.268Z,3.57
2023-01-25T14:28:28.638Z,3.40
2023-01-25T14:30:55.119Z,3.44
2023-01-25T14:33:21.598Z,3.53
2023-01-25T14:35:58.532Z,3.67
2023-01-25T14:38:26.546Z,3.72
2023-01-25T14:40:52.954Z,3.74
2023-01-25T14:43:19.337Z,3.75
2023-01-25T14:45:45.723Z,3.83
2023-01-25T14:48:12.107Z,3.89
2023-01-25T14:50:38.552Z,3.92
2023-01-25T14:53:04.939Z,3.94
2023-01-25T14:55:31.292Z,3.91
2023-01-25T14:57:57.701Z,3.80
2023-01-25T15:00:24.076Z,3.65
2023-01-25T15:02:50.490Z,3.75
2023-01-25T15:05:16.830Z,3.73
2023-01-25T15:07:43.281Z,3.77
2023-01-25T15:10:09.855Z,3.83
2023-01-25T15:12:36.386Z,3.56
2023-01-25T15:15:02.859Z,3.64
2023-01-25T15:17:29.291Z,3.69
2023-01-25T15:19:55.653Z,3.64
2023-01-25T15:22:22.085Z,3.65
2023-01-25T15:24:57.449Z,3.74
2023-01-25T15:27:24.799Z,3.66
2023-01-25T15:29:51.211Z,3.61
2023-01-25T15:32:17.582Z,3.65
2023-01-25T15:34:43.957Z,3.51
2023-01-25T15:37:10.366Z,3.58
2023-01-25T15:39:36.769Z,3.65
2023-01-25T15:42:03.150Z,3.61
2023-01-25T15:44:29.551Z,3.61
2023-01-25T15:46:55.920Z,3.67
2023-01-25T15:49:22.288Z,3.43
2023-01-25T15:51:48.735Z,3.56
2023-01-25T15:54:15.097Z,3.44
2023-01-25T15:56:41.499Z,3.42
2023-01-25T15:59:07.915Z,3.25
2023-01-25T16:01:34.339Z,3.19
2023-01-25T16:04:00.734Z,3.40
2023-01-25T16:06:27.142Z,3.46
2023-01-25T16:08:53.530Z,3.66
2023-01-25T16:11:19.924Z,3.74
2023-01-25T16:13:46.291Z,3.71
2023-01-25T16:16:12.803Z,3.65
2023-01-25T16:18:39.182Z,3.64
2023-01-25T16:21:05.657Z,3.52
2023-01-25T16:23:32.084Z,3.63
2023-01-25T16:25:58.534Z,3.64
2023-01-25T16:28:24.917Z,3.65
2023-01-25T16:30:51.341Z,3.64
2023-01-25T16:33:17.749Z,3.66
2023-01-25T16:35:44.152Z,3.54
2023-01-25T16:38:10.541Z,3.57
2023-01-25T16:40:36.935Z,3.61
2023-01-25T16:43:03.345Z,3.58
2023-01-25T16:45:29.733Z,3.62
2023-01-25T16:47:56.100Z,3.56
2023-01-25T16:50:23.752Z,3.64
2023-01-25T16:52:50.153Z,3.66
2023-01-25T16:55:16.547Z,3.68
2023-01-25T16:57:42.927Z,3.54
2023-01-25T17:00:09.498Z,3.39
2023-01-25T17:02:37.317Z,3.31
2023-01-25T17:05:04.998Z,3.54
2023-01-25T17:07:31.364Z,3.54
2023-01-25T17:09:57.766Z,3.68
2023-01-25T17:12:24.174Z,3.50
2023-01-25T17:14:50.545Z,3.49
2023-01-25T17:17:16.979Z,3.47
2023-01-25T17:19:43.354Z,3.35
2023-01-25T17:22:09.727Z,3.41
2023-01-25T17:24:36.132Z,3.30
2023-01-25T17:27:02.521Z,3.37
2023-01-25T17:29:28.936Z,3.24
2023-01-25T17:31:55.442Z,3.26
2023-01-25T17:34:22.015Z,3.31
2023-01-25T17:36:48.467Z,3.36
2023-01-25T17:39:14.874Z,3.43
2023-01-25T17:41:41.304Z,3.32
2023-01-25T17:44:07.701Z,3.22
2023-01-25T17:46:35.972Z,3.34
2023-01-25T17:49:02.479Z,3.42
2023-01-25T17:51:28.942Z,3.44
2023-01-25T17:53:55.383Z,3.36
2023-01-25T17:56:21.813Z,3.20
2023-01-25T17:58:49.234Z,3.27
2023-01-25T18:01:16.702Z,3.29
2023-01-25T18:03:43.106Z,3.30
2023-01-25T18:06:09.563Z,3.34
2023-01-25T18:08:35.989Z,3.38
2023-01-25T18:11:02.367Z,3.46
2023-01-25T18:13:28.730Z,3.35
2023-01-25T18:15:55.215Z,3.48
2023-01-25T18:18:21.633Z,3.33
2023-01-25T18:20:48.006Z,3.43
2023-01-25T18:23:14.471Z,3.40
2023-01-25T18:25:40.912Z,3.31
2023-01-25T18:28:07.288Z,3.26
2023-01-25T18:30:33.681Z,3.05
2023-01-25T18:33:00.102Z,3.15
2023-01-25T18:35:26.501Z,3.33
2023-01-25T18:37:52.924Z,3.45
2023-01-25T18:40:19.308Z,3.20
2023-01-25T18:42:45.686Z,3.28
2023-01-25T18:45:12.358Z,3.27
2023-01-25T18:47:38.796Z,3.19
2023-01-25T18:50:05.185Z,3.29
2023-01-25T18:52:31.569Z,3.04
2023-01-25T18:54:58.003Z,2.94
2023-01-25T18:57:24.413Z,2.70
2023-01-25T18:59:50.875Z,3.04
2023-01-25T19:02:17.318Z,2.98
2023-01-25T19:04:43.732Z,3.10
2023-01-25T19:07:10.127Z,3.07
2023-01-25T19:09:36.532Z,3.12
2023-01-25T19:12:02.977Z,3.20
2023-01-25T19:14:29.360Z,3.10
2023-01-25T19:16:55.825Z,3.32
2023-01-25T19:19:22.219Z,3.30
2023-01-25T19:21:48.610Z,3.09
2023-01-25T19:24:15.022Z,3.21
2023-01-25T19:26:41.405Z,3.24
2023-01-25T19:29:07.805Z,3.06
2023-01-25T19:31:34.221Z,2.89
2023-01-25T19:34:00.668Z,2.95
2023-01-25T19:36:27.061Z,2.96
2023-01-25T19:38:53.514Z,2.71
2023-01-25T19:41:19.904Z,2.75
2023-01-25T19:43:46.282Z,2.80
2023-01-25T19:46:12.737Z,2.67
2023-01-25T19:48:39.122Z,2.76
2023-01-25T19:51:05.549Z,2.90
2023-01-25T19:53:31.941Z,2.78
2023-01-25T19:55:58.709Z,2.73
2023-01-25T19:58:25.088Z,2.72
2023-01-25T20:00:51.501Z,2.65
2023-01-25T20:03:17.967Z,2.54
2023-01-25T20:05:44.427Z,2.48
2023-01-25T20:08:10.799Z,2.54
2023-01-25T20:10:37.192Z,2.52
2023-01-25T20:13:03.645Z,2.52
2023-01-25T20:15:30.009Z,2.58
2023-01-25T20:17:56.390Z,2.58
2023-01-25T20:20:22.785Z,2.50
2023-01-25T20:22:49.272Z,2.49
2023-01-25T20:25:15.677Z,2.49
2023-01-25T20:27:42.054Z,2.48
2023-01-25T20:30:08.429Z,2.51
2023-01-25T20:32:34.872Z,2.63
2023-01-25T20:35:01.284Z,2.48
2023-01-25T20:37:27.655Z,2.50
2023-01-25T20:39:54.036Z,2.72
2023-01-25T20:42:20.435Z,2.79
2023-01-25T20:44:46.866Z,2.73
2023-01-25T20:47:13.349Z,2.70
2023-01-25T20:49:39.710Z,2.50
2023-01-25T20:52:06.082Z,2.63
2023-01-25T20:54:32.547Z,2.71
2023-01-25T20:56:58.949Z,2.67
2023-01-25T20:59:25.316Z,2.76
2023-01-25T21:01:51.747Z,2.68
2023-01-25T21:04:18.156Z,2.70
2023-01-25T21:06:44.517Z,2.70
2023-01-25T21:09:10.890Z,2.61
2023-01-25T21:11:37.261Z,2.68
2023-01-25T21:14:03.771Z,2.61
2023-01-25T21:16:30.872Z,2.66
2023-01-25T21:18:57.296Z,2.56
2023-01-25T21:21:23.684Z,2.51
2023-01-25T21:23:50.134Z,2.59
2023-01-25T21:26:16.534Z,2.58
2023-01-25T21:28:42.943Z,2.67
2023-01-25T21:31:09.358Z,2.62
2023-01-25T21:33:35.835Z,2.53
2023-01-25T21:36:02.219Z,2.69
2023-01-25T21:38:28.616Z,2.57
2023-01-25T21:40:55.044Z,2.52
2023-01-25T21:43:21.448Z,2.36
2023-01-25T21:45:47.891Z,2.58
2023-01-25T21:48:14.306Z,2.63
2023-01-25T21:50:40.743Z,2.58
2023-01-25T21:53:07.118Z,2.58
2023-01-25T21:55:33.495Z,2.65
2023-01-25T21:57:59.932Z,2.69
2023-01-25T22:00:26.294Z,2.54
2023-01-25T22:02:52.703Z,2.61
2023-01-25T22:05:19.165Z,2.56
2023-01-25T22:07:45.528Z,2.66
2023-01-25T22:10:12.277Z,2.69
2023-01-25T22:12:38.886Z,2.75
2023-01-25T22:15:05.294Z,2.67
2023-01-25T22:17:31.691Z,2.75
2023-01-25T22:19:58.070Z,2.53
2023-01-25T22:22:24.462Z,2.48
2023-01-25T22:24:50.851Z,2.60
2023-01-25T22:27:17.265Z,2.67
2023-01-25T22:29:43.669Z,2.54
2023-01-25T22:32:10.033Z,2.61
2023-01-25T22:34:36.463Z,2.68
2023-01-25T22:37:02.864Z,2.70
2023-01-25T22:39:29.261Z,2.76
2023-01-25T22:41:55.672Z,2.77
2023-01-25T22:44:22.076Z,2.71
2023-01-25T22:46:48.470Z,2.81
2023-01-25T22:49:14.860Z,2.84
2023-01-25T22:51:41.267Z,2.85
2023-01-25T22:54:07.642Z,2.88
2023-01-25T22:56:34.014Z,2.87
2023-01-25T22:59:00.490Z,2.52
2023-01-25T23:01:26.984Z,2.56
2023-01-25T23:03:53.378Z,2.73
2023-01-25T23:06:19.787Z,2.89
2023-01-25T23:08:46.167Z,2.78
2023-01-25T23:11:12.566Z,2.97
2023-01-25T23:13:39.062Z,2.88
2023-01-25T23:16:05.554Z,2.85
2023-01-25T23:18:31.949Z,2.87
2023-01-25T23:20:58.352Z,3.00
2023-01-25T23:23:24.745Z,3.00
2023-01-25T23:25:51.112Z,3.05
2023-01-25T23:28:17.509Z,3.17
2023-01-25T23:30:43.941Z,3.05
2023-01-25T23:33:10.399Z,3.05
2023-01-25T23:35:36.794Z,3.28
2023-01-25T23:38:03.179Z,3.16
2023-01-25T23:40:29.558Z,3.07
2023-01-25T23:42:55.980Z,3.18
2023-01-25T23:45:22.352Z,3.23
2023-01-25T23:47:48.772Z,3.33
2023-01-25T23:50:15.142Z,3.35
2023-01-25T23:52:41.513Z,3.23
2023-01-25T23:55:07.906Z,3.22
2023-01-25T23:57:34.289Z,3.05
